Time;durP1;ratioP1;P1;durP2;ratioP2;P2;SDS_P1;SDS_P2;PMS_P1;PMS_P2;Temp;Humidity;BMP_temperature;BMP_pressure;BME280_temperature;BME280_humidity;BME280_pressure;Samples;Min_cycle;Max_cycle;Signal;HPM_P1;HPM_P2
2022/12/12 00:00:12;;;;;;;6.10;2.75;;;9.50;99.90;;;;;;5064465;28;20044;-73
2022/12/12 00:02:40;;;;;;;5.63;2.92;;;9.50;99.90;;;;;;5053867;28;20057;-73
2022/12/12 00:05:08;;;;;;;5.80;2.30;;;9.50;99.90;;;;;;5042849;28;20525;-73
2022/12/12 00:07:36;;;;;;;6.80;2.65;;;9.40;99.90;;;;;;5070019;28;20040;-73
2022/12/12 00:10:03;;;;;;;4.97;2.50;;;9.40;99.90;;;;;;5060069;28;20061;-73
2022/12/12 00:12:29;;;;;;;7.63;2.00;;;9.40;99.90;;;;;;5063296;28;20450;-74
2022/12/12 00:14:55;;;;;;;7.53;2.28;;;9.40;99.90;;;;;;5051793;28;20097;-74
2022/12/12 00:17:20;;;;;;;5.32;2.20;;;9.40;99.90;;;;;;5053106;28;20047;-74
2022/12/12 00:19:46;;;;;;;6.03;2.30;;;9.50;99.90;;;;;;5061537;28;20032;-75
2022/12/12 00:22:12;;;;;;;6.53;1.50;;;9.40;99.90;;;;;;5041599;28;20432;-74
2022/12/12 00:24:38;;;;;;;5.53;1.90;;;9.40;99.90;;;;;;5048258;28;20035;-74
2022/12/12 00:27:04;;;;;;;4.55;1.92;;;9.40;99.90;;;;;;5054467;28;20545;-73
2022/12/12 00:29:31;;;;;;;4.57;1.90;;;9.30;99.90;;;;;;5050495;28;20033;-73
2022/12/12 00:31:57;;;;;;;4.93;2.17;;;9.20;99.90;;;;;;5070804;28;20551;-72
2022/12/12 00:34:23;;;;;;;7.50;2.08;;;9.10;99.90;;;;;;5049580;28;20042;-73
2022/12/12 00:36:50;;;;;;;5.70;2.67;;;9.00;99.90;;;;;;5058301;28;20059;-73
2022/12/12 00:39:17;;;;;;;8.75;2.92;;;8.90;99.90;;;;;;5054749;28;20043;-73
2022/12/12 00:41:44;;;;;;;;;;;8.80;99.90;;;;;;5051531;28;20237;-72
2022/12/12 00:44:12;;;;;;;7.97;3.28;;;8.70;99.90;;;;;;5056014;28;20624;-73
2022/12/12 00:46:38;;;;;;;7.38;3.25;;;8.70;99.90;;;;;;5060580;28;20102;-73
2022/12/12 00:49:04;;;;;;;6.88;3.38;;;8.60;99.90;;;;;;5044925;28;20037;-73
2022/12/12 00:51:30;;;;;;;6.20;3.03;;;8.60;99.90;;;;;;5055611;28;20032;-73
2022/12/12 00:53:57;;;;;;;8.13;3.75;;;8.50;99.90;;;;;;5058480;28;20044;-73
2022/12/12 00:56:24;;;;;;;7.20;3.50;;;8.50;99.90;;;;;;5054304;28;20049;-73
2022/12/12 00:58:51;;;;;;;7.03;3.80;;;8.40;99.90;;;;;;5056885;28;20049;-73
2022/12/12 01:01:26;;;;;;;7.88;4.43;;;8.40;99.90;;;;;;5051694;28;20033;-73
2022/12/12 01:03:53;;;;;;;8.07;4.00;;;8.30;99.90;;;;;;5058250;28;20044;-73
2022/12/12 01:06:19;;;;;;;6.78;3.20;;;8.30;99.90;;;;;;5055186;28;20632;-73
2022/12/12 01:08:45;;;;;;;9.57;4.13;;;8.20;99.90;;;;;;5056520;28;21052;-72
2022/12/12 01:11:12;;;;;;;10.15;3.83;;;8.20;99.90;;;;;;5054764;28;20432;-73
2022/12/12 01:13:39;;;;;;;7.50;3.97;;;8.10;99.90;;;;;;5042471;28;20036;-74
2022/12/12 01:16:06;;;;;;;8.13;3.83;;;8.10;99.90;;;;;;5069207;28;20044;-72
2022/12/12 01:18:32;;;;;;;6.90;3.55;;;8.10;99.90;;;;;;5055856;28;20132;-73
2022/12/12 01:20:58;;;;;;;8.15;4.00;;;8.10;99.90;;;;;;5059503;28;20041;-73
2022/12/12 01:23:24;;;;;;;6.70;3.33;;;8.10;99.90;;;;;;5049994;28;20037;-74
2022/12/12 01:25:57;;;;;;;8.25;3.72;;;8.00;99.90;;;;;;5050985;28;20033;-73
2022/12/12 01:28:23;;;;;;;6.40;3.38;;;7.90;99.90;;;;;;5040378;28;20073;-73
2022/12/12 01:30:49;;;;;;;8.18;4.03;;;7.90;99.90;;;;;;5051967;28;20029;-73
2022/12/12 01:33:15;;;;;;;6.28;3.33;;;7.90;99.90;;;;;;5053419;28;20438;-73
2022/12/12 01:35:41;;;;;;;6.93;3.95;;;7.80;99.90;;;;;;5054788;28;20051;-73
2022/12/12 01:38:06;;;;;;;6.75;3.85;;;7.80;99.90;;;;;;5051597;28;20052;-73
2022/12/12 01:40:32;;;;;;;8.02;4.10;;;7.70;99.90;;;;;;5055401;28;20037;-72
2022/12/12 01:42:58;;;;;;;6.50;3.80;;;7.80;99.90;;;;;;5061894;28;20044;-72
2022/12/12 01:46:01;;;;;;;7.03;3.70;;;7.70;99.90;;;;;;5053387;28;20044;-74
2022/12/12 01:48:50;;;;;;;6.53;3.50;;;7.80;99.90;;;;;;5052692;28;20040;-73
2022/12/12 01:51:19;;;;;;;7.65;4.15;;;7.70;99.90;;;;;;5053847;28;20056;-73
2022/12/12 01:53:49;;;;;;;11.32;4.05;;;7.60;99.90;;;;;;5059665;28;20124;-74
2022/12/12 01:56:19;;;;;;;8.23;4.28;;;7.50;99.90;;;;;;5032833;28;20802;-73
2022/12/12 01:58:47;;;;;;;6.38;3.85;;;7.50;99.90;;;;;;5043194;28;20045;-73
2022/12/12 02:01:14;;;;;;;7.00;4.55;;;7.50;99.90;;;;;;5057583;28;20037;-74
2022/12/12 02:03:41;;;;;;;7.47;4.38;;;7.40;99.90;;;;;;5061259;28;20044;-73
2022/12/12 02:06:13;;;;;;;7.93;4.82;;;7.30;99.90;;;;;;5059392;28;20124;-73
2022/12/12 02:08:42;;;;;;;8.77;4.53;;;7.30;99.90;;;;;;5057411;28;20060;-73
2022/12/12 02:11:08;;;;;;;7.38;4.60;;;7.30;99.90;;;;;;5043275;28;20081;-73
2022/12/12 02:13:34;;;;;;;7.25;4.20;;;7.40;99.90;;;;;;5064639;28;20037;-73
2022/12/12 02:16:57;;;;;;;9.55;4.60;;;7.30;99.90;;;;;;5054546;28;20037;-73
2022/12/12 02:19:50;;;;;;;6.97;4.03;;;7.30;99.90;;;;;;5006043;28;20120;-73
2022/12/12 02:22:49;;;;;;;8.90;4.47;;;7.20;99.90;;;;;;5017466;28;20041;-73
2022/12/12 02:25:36;;;;;;;10.48;4.93;;;7.20;99.90;;;;;;5062603;28;20120;-73
2022/12/12 02:28:29;;;;;;;7.03;3.90;;;7.20;99.90;;;;;;5052979;28;20400;-73
2022/12/12 02:31:17;;;;;;;8.30;4.45;;;7.30;99.90;;;;;;5043751;28;20636;-74
2022/12/12 02:34:13;;;;;;;8.23;4.90;;;7.20;99.90;;;;;;5055406;28;20064;-72
2022/12/12 02:36:51;;;;;;;9.23;4.75;;;7.20;99.90;;;;;;5051415;28;20033;-73
2022/12/12 02:39:31;;;;;;;8.27;5.18;;;7.20;99.90;;;;;;5044252;28;20791;-72
2022/12/12 02:42:07;;;;;;;7.20;4.30;;;7.10;99.90;;;;;;5043024;28;20061;-74
2022/12/12 02:44:57;;;;;;;8.77;4.57;;;7.00;99.90;;;;;;5024896;28;20388;-72
2022/12/12 02:47:38;;;;;;;8.40;4.60;;;7.10;99.90;;;;;;5046116;28;20036;-73
2022/12/12 02:50:10;;;;;;;9.13;4.80;;;7.00;99.90;;;;;;5032465;28;20045;-73
2022/12/12 02:52:36;;;;;;;8.88;5.15;;;7.10;99.90;;;;;;5036752;28;20029;-73
2022/12/12 02:55:05;;;;;;;8.30;4.38;;;7.20;99.90;;;;;;5039131;28;20038;-73
2022/12/12 02:57:32;;;;;;;8.23;4.85;;;7.20;99.90;;;;;;5036059;28;20043;-73
2022/12/12 03:00:06;;;;;;;8.30;4.38;;;7.20;99.90;;;;;;5055128;28;20089;-74
2022/12/12 03:02:41;;;;;;;6.95;3.97;;;7.30;99.90;;;;;;5054543;28;20040;-73
2022/12/12 03:08:30;;;;;;;6.53;3.80;;;7.40;99.90;;;;;;5052272;28;20125;-73
2022/12/12 03:11:10;;;;;;;9.02;4.90;;;7.50;99.90;;;;;;5057541;28;20041;-73
2022/12/12 03:14:17;;;;;;;8.65;4.57;;;7.50;99.90;;;;;;5057905;28;20482;-72
2022/12/12 03:17:24;;;;;;;8.95;5.43;;;7.40;99.90;;;;;;5056603;28;20090;-73
2022/12/12 03:19:55;;;;;;;7.13;4.60;;;7.40;99.90;;;;;;5056819;28;20040;-73
2022/12/12 03:22:30;;;;;;;8.55;4.13;;;7.50;99.90;;;;;;5056668;28;20648;-73
2022/12/12 03:25:40;;;;;;;8.32;4.68;;;7.30;99.90;;;;;;5056459;28;20036;-73
2022/12/12 03:28:19;;;;;;;8.82;4.72;;;7.30;99.90;;;;;;5012442;28;20025;-73
2022/12/12 03:30:51;;;;;;;8.85;4.57;;;7.20;99.90;;;;;;5037621;28;20025;-73
2022/12/12 03:33:24;;;;;;;7.20;4.18;;;7.10;99.90;;;;;;5034342;28;20037;-72
2022/12/12 03:36:16;;;;;;;;;;;7.10;99.90;;;;;;5040953;28;20047;-73
2022/12/12 03:38:55;;;;;;;9.38;4.75;;;7.10;99.90;;;;;;5039936;28;20443;-73
2022/12/12 03:41:30;;;;;;;6.97;3.78;;;7.10;99.90;;;;;;5051891;28;20491;-73
2022/12/12 03:44:04;;;;;;;7.15;3.92;;;7.20;99.90;;;;;;5070687;28;20046;-74
2022/12/12 03:46:38;;;;;;;6.78;4.28;;;7.30;99.90;;;;;;5040459;28;20037;-73
2022/12/12 03:49:19;;;;;;;8.27;4.13;;;7.30;99.90;;;;;;5033444;28;20056;-73
2022/12/12 03:51:58;;;;;;;8.75;4.22;;;7.30;99.90;;;;;;5040118;28;20041;-73
2022/12/12 03:54:34;;;;;;;6.03;3.20;;;7.20;99.90;;;;;;5048108;28;20515;-74
2022/12/12 03:57:12;;;;;;;7.45;3.40;;;7.20;99.90;;;;;;5071401;28;20120;-73
2022/12/12 03:59:45;;;;;;;6.43;3.60;;;7.40;99.90;;;;;;5051402;28;20113;-73
2022/12/12 04:02:31;;;;;;;;;;;7.40;99.90;;;;;;5053565;28;20036;-73
2022/12/12 04:05:34;;;;;;;6.22;3.30;;;7.30;99.90;;;;;;5054811;28;19967;-73
2022/12/12 04:08:03;;;;;;;6.30;3.83;;;7.20;99.90;;;;;;5055675;28;20041;-73
2022/12/12 04:13:31;;;;;;;6.53;3.65;;;7.10;99.90;;;;;;5060273;28;20132;-73
2022/12/12 04:16:11;;;;;;;10.00;4.03;;;7.00;99.90;;;;;;5056728;28;20081;-73
2022/12/12 04:18:43;;;;;;;7.38;3.40;;;7.00;99.90;;;;;;5041132;28;20503;-72
2022/12/12 04:24:37;;;;;;;9.02;4.13;;;6.90;99.90;;;;;;5034895;28;20045;-73
2022/12/12 04:27:14;;;;;;;7.60;4.07;;;6.90;99.90;;;;;;5035939;28;20056;-74
2022/12/12 04:30:06;;;;;;;9.30;4.47;;;6.90;99.90;;;;;;5047155;28;20880;-73
2022/12/12 04:32:32;;;;;;;8.23;3.78;;;6.90;99.90;;;;;;5052358;28;20032;-73
2022/12/12 04:35:18;;;;;;;8.10;3.50;;;6.90;99.90;;;;;;5058777;28;20082;-73
2022/12/12 04:38:03;;;;;;;6.53;3.88;;;6.90;99.90;;;;;;5052701;28;20821;-73
2022/12/12 04:40:36;;;;;;;7.03;3.53;;;6.90;99.90;;;;;;5067122;28;20112;-73
2022/12/12 04:43:19;;;;;;;6.90;3.88;;;6.80;99.90;;;;;;5053326;28;20041;-73
2022/12/12 04:45:53;;;;;;;8.02;3.95;;;6.80;99.90;;;;;;5038081;28;20045;-73
2022/12/12 04:48:27;;;;;;;7.20;3.65;;;6.80;99.90;;;;;;5033922;28;20505;-73
2022/12/12 04:50:53;;;;;;;6.47;3.95;;;6.80;99.90;;;;;;5034979;28;20033;-73
2022/12/12 04:53:28;;;;;;;5.55;3.00;;;6.80;99.90;;;;;;5048257;28;20826;-73
2022/12/12 04:56:00;;;;;;;5.85;3.25;;;6.70;99.90;;;;;;5034814;28;20151;-73
2022/12/12 04:58:26;;;;;;;5.32;2.35;;;6.80;99.90;;;;;;5033322;28;20449;-72
2022/12/12 05:01:07;;;;;;;5.93;3.00;;;6.70;99.90;;;;;;5038646;28;20052;-73
2022/12/12 05:03:46;;;;;;;6.25;2.88;;;6.70;99.90;;;;;;5041975;28;20451;-73
2022/12/12 05:06:17;;;;;;;5.40;2.03;;;6.60;99.90;;;;;;5038590;28;20736;-74
2022/12/12 05:08:52;;;;;;;5.40;2.80;;;6.70;99.90;;;;;;5038051;28;20123;-74
2022/12/12 05:11:20;;;;;;;5.22;2.55;;;6.60;99.90;;;;;;5047170;28;20038;-74
2022/12/12 05:13:48;;;;;;;6.22;2.97;;;6.60;99.90;;;;;;5042335;28;20127;-74
2022/12/12 05:16:31;;;;;;;7.28;2.92;;;6.60;99.90;;;;;;5033146;28;20068;-73
2022/12/12 05:18:58;;;;;;;5.85;2.80;;;6.60;99.90;;;;;;5034386;28;20044;-74
2022/12/12 05:21:24;;;;;;;8.63;3.38;;;6.60;99.90;;;;;;5035144;28;20041;-74
2022/12/12 05:23:50;;;;;;;5.97;3.00;;;6.60;99.90;;;;;;5034701;28;20041;-74
2022/12/12 05:26:27;;;;;;;5.25;2.83;;;6.60;99.90;;;;;;5041360;28;20026;-74
2022/12/12 05:28:53;;;;;;;6.03;2.83;;;6.60;99.90;;;;;;5038966;28;20471;-73
2022/12/12 05:31:20;;;;;;;5.35;2.50;;;6.60;99.90;;;;;;5048667;28;20515;-73
2022/12/12 05:33:46;;;;;;;4.32;2.20;;;6.70;99.90;;;;;;5039132;28;20049;-74
2022/12/12 05:36:12;;;;;;;7.05;3.28;;;6.70;99.90;;;;;;5023354;28;20040;-73
2022/12/12 05:38:38;;;;;;;5.50;3.08;;;6.60;99.90;;;;;;5040881;28;20030;-72
2022/12/12 05:41:04;;;;;;;5.32;2.80;;;6.60;99.90;;;;;;5043665;28;20373;-73
2022/12/12 05:43:30;;;;;;;4.15;2.53;;;6.50;99.90;;;;;;5037601;28;20052;-73
2022/12/12 05:45:56;;;;;;;4.45;2.35;;;6.60;99.90;;;;;;5040456;28;20065;-73
2022/12/12 05:48:22;;;;;;;5.03;2.80;;;6.60;99.90;;;;;;5040917;28;20626;-73
2022/12/12 05:50:48;;;;;;;5.18;2.35;;;6.60;99.90;;;;;;5043269;28;20096;-74
2022/12/12 05:53:14;;;;;;;5.70;2.92;;;6.60;99.90;;;;;;5035191;28;20040;-73
2022/12/12 05:55:41;;;;;;;5.13;2.55;;;6.60;99.90;;;;;;5054644;28;20036;-73
2022/12/12 05:58:07;;;;;;;5.75;2.47;;;6.50;99.90;;;;;;5039302;28;20047;-73
2022/12/12 06:00:33;;;;;;;5.15;2.13;;;6.60;99.90;;;;;;5035676;28;20368;-74
2022/12/12 06:02:58;;;;;;;5.70;2.83;;;6.60;99.90;;;;;;5038558;28;20029;-75
2022/12/12 06:05:24;;;;;;;5.43;2.58;;;6.60;99.90;;;;;;5042025;28;20082;-73
2022/12/12 06:07:50;;;;;;;4.97;2.38;;;6.70;99.90;;;;;;5045899;28;20231;-73
2022/12/12 06:10:16;;;;;;;5.35;2.53;;;6.60;99.90;;;;;;5026781;28;20076;-74
2022/12/12 06:12:42;;;;;;;4.95;2.40;;;6.60;99.90;;;;;;5041729;28;20063;-73
2022/12/12 06:15:09;;;;;;;5.85;2.22;;;6.60;99.90;;;;;;5034321;28;20091;-73
2022/12/12 06:17:34;;;;;;;4.68;2.50;;;6.60;99.90;;;;;;5043808;28;20037;-73
2022/12/12 06:20:01;;;;;;;4.43;2.42;;;6.60;99.90;;;;;;5040218;28;20049;-74
2022/12/12 06:22:27;;;;;;;4.85;2.00;;;6.60;99.90;;;;;;5036205;28;20029;-73
2022/12/12 06:24:52;;;;;;;4.38;2.17;;;6.70;99.90;;;;;;5044086;28;20021;-73
2022/12/12 06:27:18;;;;;;;5.25;2.22;;;6.70;99.90;;;;;;5043912;28;20037;-73
2022/12/12 06:29:44;;;;;;;5.35;2.50;;;6.70;99.90;;;;;;5040204;28;20043;-73
2022/12/12 06:32:10;;;;;;;7.28;2.58;;;6.60;99.90;;;;;;5034492;28;20030;-74
2022/12/12 06:34:39;;;;;;;4.57;2.47;;;6.70;99.90;;;;;;5040674;28;20036;-73
2022/12/12 06:37:06;;;;;;;5.63;3.05;;;6.60;99.90;;;;;;5035839;28;20040;-73
2022/12/12 06:39:32;;;;;;;5.32;2.85;;;6.60;99.90;;;;;;5044118;28;20037;-72
2022/12/12 06:41:59;;;;;;;5.50;3.15;;;6.50;99.90;;;;;;5038055;28;20037;-74
2022/12/12 06:44:25;;;;;;;4.97;2.55;;;6.60;99.90;;;;;;5053439;28;20385;-73
2022/12/12 06:46:52;;;;;;;6.53;3.40;;;6.50;99.90;;;;;;5037908;28;20039;-73
2022/12/12 06:49:17;;;;;;;7.07;3.75;;;6.50;99.90;;;;;;5043059;28;20559;-73
2022/12/12 06:51:45;;;;;;;5.88;3.45;;;6.50;99.90;;;;;;5034666;28;20037;-74
2022/12/12 06:54:16;;;;;;;7.18;4.43;;;6.40;99.90;;;;;;5031084;28;20491;-73
2022/12/12 06:56:42;;;;;;;5.18;2.70;;;6.40;99.90;;;;;;5049506;28;20045;-73
2022/12/12 06:59:10;;;;;;;5.32;2.92;;;6.40;99.90;;;;;;5032750;28;20390;-73
2022/12/12 07:01:36;;;;;;;6.05;3.53;;;6.40;99.90;;;;;;5052354;28;20129;-72
2022/12/12 07:04:03;;;;;;;6.07;3.40;;;6.30;99.90;;;;;;5036491;28;20037;-74
2022/12/12 07:06:29;;;;;;;6.15;3.17;;;6.40;99.90;;;;;;5037328;28;20037;-74
2022/12/12 07:08:57;;;;;;;6.05;3.63;;;6.40;99.90;;;;;;5039074;28;20048;-73
2022/12/12 07:11:24;;;;;;;6.18;3.05;;;6.40;99.90;;;;;;5035259;28;20359;-74
2022/12/12 07:13:53;;;;;;;7.05;3.78;;;6.40;99.90;;;;;;5037817;28;20037;-73
2022/12/12 07:16:20;;;;;;;7.30;3.70;;;6.40;99.90;;;;;;5044132;28;20079;-74
2022/12/12 07:18:46;;;;;;;6.72;3.72;;;6.40;99.90;;;;;;5041378;28;20481;-74
2022/12/12 07:21:15;;;;;;;7.47;4.00;;;6.50;99.90;;;;;;5034088;28;20030;-74
2022/12/12 07:23:41;;;;;;;6.28;3.45;;;6.50;99.90;;;;;;5041016;28;20048;-75
2022/12/12 07:26:12;;;;;;;6.55;4.00;;;6.60;99.90;;;;;;5034323;28;20030;-75
2022/12/12 07:28:38;;;;;;;5.95;3.08;;;6.60;99.90;;;;;;5037060;28;20487;-74
2022/12/12 07:31:09;;;;;;;6.95;3.95;;;6.60;99.90;;;;;;5037097;28;20034;-73
2022/12/12 07:33:37;;;;;;;6.60;3.85;;;6.70;99.90;;;;;;5048641;28;20031;-74
2022/12/12 07:36:03;;;;;;;7.00;3.90;;;6.70;99.90;;;;;;5032083;28;20598;-74
2022/12/12 07:38:29;;;;;;;8.48;3.97;;;6.70;99.90;;;;;;5039173;28;20628;-74
2022/12/12 07:40:55;;;;;;;9.05;4.07;;;6.70;99.90;;;;;;5038177;28;20033;-74
2022/12/12 07:43:22;;;;;;;7.35;3.72;;;6.80;99.90;;;;;;5040800;28;20040;-74
2022/12/12 07:45:48;;;;;;;5.45;3.33;;;6.80;99.90;;;;;;5038059;28;20040;-74
2022/12/12 07:48:14;;;;;;;6.07;3.50;;;6.90;99.90;;;;;;5025644;28;20038;-74
2022/12/12 07:50:41;;;;;;;5.65;2.72;;;6.90;99.90;;;;;;5042805;28;20405;-74
2022/12/12 07:53:07;;;;;;;6.85;3.85;;;6.90;99.90;;;;;;5051015;28;20057;-74
2022/12/12 07:55:34;;;;;;;8.13;3.58;;;6.90;99.90;;;;;;5039780;28;20052;-74
2022/12/12 07:58:00;;;;;;;6.68;3.40;;;6.90;99.90;;;;;;5038331;28;20049;-76
2022/12/12 08:00:26;;;;;;;8.88;3.85;;;6.90;99.90;;;;;;5040578;28;20043;-73
2022/12/12 08:02:52;;;;;;;5.57;2.92;;;7.00;99.90;;;;;;5031906;28;20041;-74
2022/12/12 08:05:18;;;;;;;10.82;5.00;;;7.00;99.90;;;;;;5031020;28;20056;-74
2022/12/12 08:07:45;;;;;;;7.13;4.03;;;7.00;99.90;;;;;;5036973;28;20045;-74
2022/12/12 08:10:11;;;;;;;7.53;4.35;;;7.20;99.90;;;;;;5023441;28;20061;-74
2022/12/12 08:12:37;;;;;;;6.18;3.80;;;8.10;99.90;;;;;;5038527;28;20496;-72
2022/12/12 08:15:03;;;;;;;8.73;3.83;;;8.90;99.90;;;;;;5036166;28;20072;-74
2022/12/12 08:17:29;;;;;;;6.18;4.50;;;9.10;99.90;;;;;;5041685;28;20048;-73
2022/12/12 08:20:02;;;;;;;6.65;4.03;;;10.10;99.90;;;;;;5038411;28;20044;-75
2022/12/12 08:22:28;;;;;;;5.22;2.80;;;10.40;99.90;;;;;;5048462;28;20079;-74
2022/12/12 08:24:54;;;;;;;5.57;3.45;;;9.50;99.90;;;;;;5042639;28;20042;-74
2022/12/12 08:27:20;;;;;;;5.80;3.42;;;10.20;99.90;;;;;;5041279;28;20025;-74
2022/12/12 08:29:46;;;;;;;5.95;3.33;;;11.10;99.90;;;;;;5035955;28;20037;-74
2022/12/12 08:32:11;;;;;;;6.03;3.70;;;11.20;99.90;;;;;;5044322;28;20027;-73
2022/12/12 08:34:37;;;;;;;5.30;3.30;;;11.30;99.90;;;;;;5035804;28;20044;-74
2022/12/12 08:37:04;;;;;;;7.97;3.97;;;11.90;99.90;;;;;;5037869;28;20111;-73
2022/12/12 08:39:29;;;;;;;5.35;3.30;;;12.10;99.90;;;;;;5028824;28;20020;-74
2022/12/12 08:41:57;;;;;;;5.68;3.40;;;11.10;99.90;;;;;;5066823;28;20037;-73
2022/12/12 08:44:23;;;;;;;4.90;3.00;;;9.60;99.90;;;;;;5053657;28;20040;-72
2022/12/12 08:46:49;;;;;;;6.60;3.78;;;8.80;99.90;;;;;;5049766;28;20037;-74
2022/12/12 08:49:15;;;;;;;4.63;2.50;;;8.40;99.90;;;;;;5043895;28;20104;-73
2022/12/12 08:51:41;;;;;;;5.03;2.10;;;8.20;99.90;;;;;;5055552;28;20461;-74
2022/12/12 08:54:07;;;;;;;5.00;2.75;;;8.00;99.90;;;;;;5045351;28;20051;-74
2022/12/12 08:56:33;;;;;;;6.70;3.13;;;7.80;99.90;;;;;;5047048;28;20040;-73
2022/12/12 08:58:59;;;;;;;5.03;3.10;;;7.90;99.90;;;;;;5054925;28;20045;-73
2022/12/12 09:01:27;;;;;;;6.47;3.30;;;8.30;99.90;;;;;;5049065;28;20558;-73
2022/12/12 09:03:59;;;;;;;6.53;3.03;;;8.70;99.90;;;;;;5051530;28;20060;-74
2022/12/12 09:06:27;;;;;;;5.72;3.25;;;8.50;99.90;;;;;;5062038;28;20052;-73
2022/12/12 09:08:55;;;;;;;6.35;3.72;;;8.30;99.90;;;;;;5060443;28;20041;-74
2022/12/12 09:11:22;;;;;;;5.82;3.20;;;8.60;99.90;;;;;;5063216;28;20123;-73
2022/12/12 09:13:49;;;;;;;6.97;3.95;;;8.90;99.90;;;;;;5052910;28;20041;-73
2022/12/12 09:16:15;;;;;;;;;;;9.30;99.90;;;;;;5049799;28;20041;-73
2022/12/12 09:18:41;;;;;;;6.57;3.65;;;9.40;99.90;;;;;;5055657;28;19951;-74
2022/12/12 09:21:07;;;;;;;7.00;3.58;;;9.40;99.90;;;;;;5051305;28;20481;-75
2022/12/12 09:23:34;;;;;;;5.47;4.10;;;9.60;99.90;;;;;;5053234;28;20556;-74
2022/12/12 09:26:04;;;;;;;6.88;4.10;;;9.90;99.90;;;;;;5051414;28;20065;-73
2022/12/12 09:28:30;;;;;;;9.05;3.75;;;10.30;99.90;;;;;;5053064;28;20502;-74
2022/12/12 09:30:56;;;;;;;8.55;3.63;;;10.50;99.90;;;;;;5052552;28;20041;-73
2022/12/12 09:33:21;;;;;;;5.82;3.33;;;10.60;99.90;;;;;;5054040;28;20691;-74
2022/12/12 09:35:59;;;;;;;6.38;3.95;;;10.70;99.90;;;;;;5057576;28;20046;-73
2022/12/12 09:38:26;;;;;;;5.45;3.33;;;10.80;99.90;;;;;;5041897;28;20031;-74
2022/12/12 09:40:56;;;;;;;6.10;3.22;;;10.50;99.90;;;;;;5042433;28;20123;-74
2022/12/12 09:43:32;;;;;;;5.65;3.35;;;10.60;99.90;;;;;;5052929;28;21718;-74
2022/12/12 09:46:00;;;;;;;6.63;3.58;;;10.50;99.90;;;;;;5049466;28;20492;-74
2022/12/12 09:48:44;;;;;;;6.43;3.28;;;10.50;99.90;;;;;;5050794;28;20036;-74
2022/12/12 09:51:11;;;;;;;5.20;3.28;;;10.40;99.90;;;;;;5053371;28;20037;-75
2022/12/12 09:53:42;;;;;;;6.95;3.05;;;10.10;99.90;;;;;;5056627;28;20049;-74
2022/12/12 09:56:23;;;;;;;7.55;3.78;;;9.70;99.90;;;;;;5053465;28;20061;-73
2022/12/12 09:59:16;;;;;;;5.28;3.00;;;9.60;99.90;;;;;;5051527;28;20037;-74
2022/12/12 10:02:24;;;;;;;6.53;3.10;;;9.60;99.90;;;;;;5047468;28;20037;-73
2022/12/12 10:05:21;;;;;;;6.30;3.67;;;9.70;99.90;;;;;;5034674;28;20080;-73
2022/12/12 10:08:12;;;;;;;8.10;4.05;;;9.80;99.90;;;;;;5035318;28;20140;-73
2022/12/12 10:10:42;;;;;;;6.45;3.15;;;9.80;99.90;;;;;;5055962;28;20179;-74
2022/12/12 10:13:26;;;;;;;8.20;3.67;;;10.10;99.90;;;;;;5055059;28;20098;-73
2022/12/12 10:16:16;;;;;;;6.75;3.13;;;10.40;99.90;;;;;;5059330;28;20029;-74
2022/12/12 10:18:47;;;;;;;5.90;3.28;;;10.60;99.90;;;;;;5041898;28;20030;-74
2022/12/12 10:21:29;;;;;;;6.95;3.63;;;10.80;99.90;;;;;;5035379;28;20041;-73
2022/12/12 10:24:10;;;;;;;6.70;3.45;;;10.50;99.90;;;;;;5033896;28;20079;-74
2022/12/12 10:26:37;;;;;;;12.05;3.53;;;10.50;99.90;;;;;;5052558;28;20063;-75
2022/12/12 10:29:29;;;;;;;7.80;3.78;;;10.50;99.90;;;;;;5066024;28;20403;-74
2022/12/12 10:32:39;;;;;;;7.85;3.83;;;10.50;99.90;;;;;;5053965;28;20045;-74
2022/12/12 10:35:14;;;;;;;8.20;3.90;;;10.40;99.90;;;;;;4983232;28;20053;-74
2022/12/12 10:37:56;;;;;;;6.97;4.05;;;10.20;99.90;;;;;;5046544;28;20044;-74
2022/12/12 10:40:38;;;;;;;6.82;3.67;;;10.20;99.90;;;;;;5053269;28;20064;-73
2022/12/12 10:43:33;;;;;;;5.63;3.10;;;10.10;99.90;;;;;;5057870;28;20416;-74
2022/12/12 10:46:26;;;;;;;9.35;3.47;;;10.10;99.90;;;;;;5051357;28;20135;-73
2022/12/12 10:48:53;;;;;;;5.88;3.03;;;10.10;99.90;;;;;;5062111;28;20124;-73
2022/12/12 10:51:24;;;;;;;5.78;3.08;;;10.10;99.90;;;;;;5054807;28;20033;-74
2022/12/12 10:53:51;;;;;;;4.80;2.80;;;10.20;99.90;;;;;;5061143;28;20091;-75
2022/12/12 10:56:26;;;;;;;5.40;3.20;;;10.30;99.90;;;;;;5054561;28;20041;-73
2022/12/12 10:58:57;;;;;;;6.88;3.47;;;10.30;99.90;;;;;;5041402;28;20040;-74
2022/12/12 11:01:30;;;;;;;8.07;2.70;;;10.40;99.90;;;;;;5049386;28;20406;-74
2022/12/12 11:03:59;;;;;;;6.22;3.33;;;10.50;99.90;;;;;;5058743;28;20045;-73
2022/12/12 11:06:29;;;;;;;5.32;3.03;;;10.50;99.90;;;;;;5056646;28;20037;-74
2022/12/12 11:09:22;;;;;;;5.38;3.15;;;10.30;99.90;;;;;;5060814;28;20043;-74
2022/12/12 11:12:04;;;;;;;6.10;3.40;;;10.10;99.90;;;;;;5050082;28;20044;-74
2022/12/12 11:14:37;;;;;;;6.18;2.83;;;10.00;99.90;;;;;;5025088;28;20041;-73
2022/12/12 11:17:19;;;;;;;6.32;3.67;;;10.00;99.90;;;;;;5059265;28;20075;-74
2022/12/12 11:19:45;;;;;;;6.05;2.70;;;10.00;99.90;;;;;;5058105;28;20429;-73
2022/12/12 11:22:13;;;;;;;7.10;3.08;;;9.90;99.90;;;;;;5057315;28;20045;-74
2022/12/12 11:24:43;;;;;;;6.13;2.97;;;10.20;99.90;;;;;;5049108;28;20049;-74
2022/12/12 11:27:23;;;;;;;8.10;2.67;;;10.40;99.90;;;;;;5049750;28;20036;-75
2022/12/12 11:29:53;;;;;;;;;;;10.50;99.90;;;;;;5056330;28;20723;-74
2022/12/12 11:32:38;;;;;;;6.03;2.70;;;10.50;99.90;;;;;;5066938;28;19998;-74
2022/12/12 11:35:20;;;;;;;6.70;2.80;;;10.80;99.90;;;;;;5046251;28;20132;-75
2022/12/12 11:37:50;;;;;;;4.57;2.53;;;11.00;99.90;;;;;;5052761;28;20053;-73
2022/12/12 11:40:28;;;;;;;6.95;2.67;;;11.10;99.90;;;;;;5042789;28;20037;-74
2022/12/12 11:43:24;;;;;;;5.40;2.60;;;11.00;99.90;;;;;;5052330;28;20036;-74
2022/12/12 11:46:06;;;;;;;6.68;2.97;;;11.10;99.90;;;;;;5050691;28;20029;-74
2022/12/12 11:48:38;;;;;;;7.18;2.50;;;11.30;99.90;;;;;;5043904;28;20029;-73
2022/12/12 11:51:05;;;;;;;4.70;1.90;;;11.50;99.90;;;;;;5019496;28;20366;-74
2022/12/12 11:53:39;;;;;;;9.35;2.60;;;11.50;99.90;;;;;;5036741;28;20033;-73
2022/12/12 11:56:16;;;;;;;7.70;3.25;;;11.70;99.90;;;;;;5039411;28;20043;-72
2022/12/12 11:59:00;;;;;;;8.05;3.15;;;11.80;99.90;;;;;;5028268;28;20167;-74
2022/12/12 12:01:44;;;;;;;6.28;2.80;;;11.60;99.90;;;;;;5033831;28;20034;-74
2022/12/12 12:04:32;;;;;;;6.20;2.65;;;11.50;99.90;;;;;;5020891;28;20397;-74
2022/12/12 12:07:09;;;;;;;5.47;2.65;;;11.90;99.90;;;;;;5034142;28;20435;-74
2022/12/12 12:09:35;;;;;;;9.13;3.47;;;11.80;99.90;;;;;;5048039;28;20021;-73
2022/12/12 12:12:16;;;;;;;6.55;3.65;;;11.80;99.90;;;;;;5033192;28;20080;-73
2022/12/12 12:14:48;;;;;;;7.82;3.67;;;11.80;99.90;;;;;;5070172;28;20045;-74
2022/12/12 12:17:48;;;;;;;7.05;4.13;;;11.90;99.90;;;;;;5050902;28;20123;-73
2022/12/12 12:20:31;;;;;;;7.97;3.85;;;11.90;99.90;;;;;;5049879;28;20047;-74
2022/12/12 12:23:44;;;;;;;7.72;4.30;;;12.00;99.90;;;;;;5051320;28;20135;-74
2022/12/12 12:26:31;;;;;;;8.93;4.18;;;12.20;99.90;;;;;;5017266;28;20040;-74
2022/12/12 12:29:10;;;;;;;8.55;4.88;;;12.20;99.90;;;;;;5047688;28;20040;-73
2022/12/12 12:31:51;;;;;;;10.82;4.35;;;12.10;99.90;;;;;;5048322;28;20040;-74
2022/12/12 12:34:42;;;;;;;8.93;3.78;;;12.00;99.90;;;;;;5052607;28;20327;-73
2022/12/12 12:37:46;;;;;;;7.55;4.20;;;12.20;99.90;;;;;;5055877;28;20040;-73
2022/12/12 12:40:30;;;;;;;8.75;4.72;;;11.90;99.90;;;;;;5057009;28;20090;-74
2022/12/12 12:43:05;;;;;;;7.57;4.55;;;11.70;99.90;;;;;;5057286;28;20564;-74
2022/12/12 12:45:48;;;;;;;8.00;4.72;;;11.40;99.90;;;;;;5059154;28;20028;-74
2022/12/12 12:48:14;;;;;;;7.63;4.32;;;11.40;99.90;;;;;;5057860;28;20032;-74
2022/12/12 12:50:49;;;;;;;11.18;5.53;;;11.30;99.90;;;;;;5056657;28;20051;-75
2022/12/12 12:53:37;;;;;;;6.93;4.25;;;11.30;99.90;;;;;;5054778;28;20064;-75
2022/12/12 12:56:22;;;;;;;7.82;4.68;;;11.50;99.90;;;;;;5053968;28;20041;-74
2022/12/12 12:58:50;;;;;;;7.55;4.10;;;11.30;99.90;;;;;;5053006;28;20526;-74
2022/12/12 13:01:26;;;;;;;8.80;5.03;;;11.30;99.90;;;;;;5049816;28;20048;-76
2022/12/12 13:04:10;;;;;;;8.82;5.18;;;11.40;99.90;;;;;;5056348;28;20059;-74
2022/12/12 13:06:51;;;;;;;8.38;4.35;;;11.40;99.90;;;;;;5045040;28;20099;-76
2022/12/12 13:09:46;;;;;;;11.98;5.00;;;11.60;99.90;;;;;;5053207;28;20032;-74
2022/12/12 13:12:38;;;;;;;8.82;3.78;;;11.50;99.90;;;;;;5032582;28;20068;-74
2022/12/12 13:15:20;;;;;;;10.40;4.65;;;11.60;99.90;;;;;;5030738;28;20091;-72
2022/12/12 13:17:54;;;;;;;10.07;4.75;;;11.70;99.90;;;;;;5031789;28;20049;-73
2022/12/12 13:20:24;;;;;;;9.68;4.80;;;11.60;99.90;;;;;;5029613;28;20470;-73
2022/12/12 13:23:03;;;;;;;12.30;5.65;;;11.60;99.90;;;;;;5030621;28;20123;-73
2022/12/12 13:25:31;;;;;;;12.00;5.30;;;11.50;99.90;;;;;;5054025;28;20052;-74
2022/12/12 13:28:00;;;;;;;12.40;5.43;;;11.40;99.90;;;;;;5061700;28;20516;-74
2022/12/12 13:30:41;;;;;;;9.75;5.32;;;11.50;99.90;;;;;;5034143;28;20041;-74
2022/12/12 13:33:14;;;;;;;11.40;5.78;;;11.50;99.90;;;;;;5053206;28;20032;-74
2022/12/12 13:35:47;;;;;;;8.20;4.30;;;11.50;99.90;;;;;;5041370;28;20072;-74